Tuesday, October 23, 2018, 8:51 PM EDT
Back to Local

K1V4, St Johnsbury Fairbanks

Location: Saint Johnsbury, VT, United States Lat: 44.417
Local Time: 8:51 PM EDT ( 0:51 GMT) Lon: -72.017
Time Zone: US/Eastern Elev: 695 ft

Show me the last for .
Show Coded

Time T Td Feel RH Dir Speed Gust Alt SLP Vis Weather Sky Remarks
2018-10-23 19:54 40 37 - 89 - - - 29.93 29.95 0 6-hr Precip Total (8pm): 0.13"
6-hr Min Temp (8pm): 39.9°F
6-hr Max Temp (8pm): 43.0°F
2018-10-23 18:54 41 38 - 88 - - - 29.94 29.96 0 None
2018-10-23 17:54 41 39 - 92 - - - 29.95 29.97 0 None
2018-10-23 16:54 41 40 - 95 - - - 29.95 29.97 0 1-hr Precip Total: 0.03"
6-hr Precip Total (5pm): 0.13"
2018-10-23 15:54 42 41 - 95 - - - 29.96 29.98 0 1-hr Precip Total: 0.01"
2018-10-23 14:54 42 40 - 91 - - - 29.97 29.99 0 1-hr Precip Total: 0.09"
2018-10-23 13:54 43 38 - 82 - - - 29.99 30.01 0 6-hr Precip Total (2pm): 0.01"
6-hr Min Temp (2pm): 35.1°F
6-hr Max Temp (2pm): 44.1°F
2018-10-23 12:54 44 36 - 72 - - - 30.02 30.04 0 1-hr Precip Total: 0.01"
2018-10-23 11:54 43 33 - 67 - - - 30.05 30.07 0 None
2018-10-23 10:54 40 33 - 76 - - - 30.07 30.09 0 None
2018-10-23 09:54 37 32 - 81 - - - 30.09 30.11 0 None
2018-10-23 08:54 36 31 - 81 - - - 30.09 30.11 0 None
2018-10-23 07:54 35 31 - 84 - - - 30.09 30.12 0 6-hr Min Temp (8am): 34.0°F
6-hr Max Temp (8am): 35.1°F
2018-10-23 06:54 35 31 - 84 - - - 30.09 30.11 0 None
2018-10-23 05:54 34 31 - 88 - - - 30.09 30.11 0 None
2018-10-23 04:54 35 30 - 81 - - - 30.10 30.12 0 None
2018-10-23 03:54 35 30 - 81 - - - 30.09 30.11 0 None
2018-10-23 02:54 35 29 - 78 - - - 30.10 30.12 0 None
2018-10-23 01:54 35 29 - 78 - - - 30.10 30.12 0 6-hr Min Temp (2am): 35.1°F
6-hr Max Temp (2am): 36.0°F
2018-10-23 00:54 35 29 - 78 - - - 30.11 30.14 0 24-hr Min Temp (1am): 30.0°F
24-hr Max Temp (1am): 41.0°F
2018-10-22 23:54 35 29 - 78 - - - 30.11 30.14 0 None
2018-10-22 22:54 35 28 - 75 - - - 30.12 30.15 0 None
2018-10-22 21:54 35 29 - 78 - - - 30.12 30.14 0 None
2018-10-22 20:54 36 28 - 72 - - - 30.12 30.14 0 None

Support USWX by starting your Amazon purchase here.